createdAt,value
2023-02-27T00:00:17.055Z,0.36
2023-02-27T00:03:04.133Z,0.33
2023-02-27T00:05:31.773Z,0.18
2023-02-27T00:07:58.861Z,0.38
2023-02-27T00:10:26.239Z,-0.05
2023-02-27T00:12:53.345Z,0.43
2023-02-27T00:15:20.926Z,0.28
2023-02-27T00:17:48.122Z,-0.01
2023-02-27T00:20:18.082Z,0.12
2023-02-27T00:22:46.117Z,-0.20
2023-02-27T00:25:13.872Z,-0.25
2023-02-27T00:27:41.541Z,-0.01
2023-02-27T00:30:11.570Z,0.10
2023-02-27T00:32:38.691Z,0.02
2023-02-27T00:35:08.401Z,0.02
2023-02-27T00:37:36.138Z,0.04
2023-02-27T00:40:05.431Z,0.28
2023-02-27T00:42:33.055Z,0.03
2023-02-27T00:45:00.480Z,0.28
2023-02-27T00:47:27.776Z,0.31
2023-02-27T00:49:55.215Z,0.23
2023-02-27T00:52:22.386Z,0.03
2023-02-27T00:54:49.776Z,0.10
2023-02-27T00:57:16.967Z,0.27
2023-02-27T00:59:44.993Z,0.06
2023-02-27T01:02:13.855Z,0.26
2023-02-27T01:04:41.449Z,0.39
2023-02-27T01:07:09.232Z,0.18
2023-02-27T01:09:37.129Z,0.20
2023-02-27T01:12:04.594Z,0.31
2023-02-27T01:14:32.204Z,0.28
2023-02-27T01:16:59.331Z,0.37
2023-02-27T01:19:26.928Z,0.25
2023-02-27T01:21:54.033Z,0.44
2023-02-27T01:24:22.004Z,0.54
2023-02-27T01:26:49.714Z,0.15
2023-02-27T01:29:17.134Z,0.04
2023-02-27T01:31:45.041Z,0.42
2023-02-27T01:34:12.570Z,0.09
2023-02-27T01:36:41.452Z,0.17
2023-02-27T01:39:09.430Z,0.06
2023-02-27T01:41:36.765Z,-0.03
2023-02-27T01:44:07.638Z,0.18
2023-02-27T01:46:37.769Z,-0.09
2023-02-27T01:49:11.362Z,0.11
2023-02-27T01:51:45.037Z,-0.02
2023-02-27T01:54:17.403Z,0.26
2023-02-27T01:56:44.917Z,-0.30
2023-02-27T01:59:15.583Z,-0.02
2023-02-27T02:01:43.114Z,-0.15
2023-02-27T02:04:15.905Z,0.12
2023-02-27T02:06:47.584Z,0.22
2023-02-27T02:09:17.707Z,0.07
2023-02-27T02:11:45.832Z,-0.09
2023-02-27T02:14:13.186Z,0.17
2023-02-27T02:17:05.696Z,-0.04
2023-02-27T02:19:55.334Z,0.09
2023-02-27T02:22:55.625Z,0.17
2023-02-27T02:25:44.912Z,0.24
2023-02-27T02:28:47.036Z,0.36
2023-02-27T02:31:20.776Z,0.41
2023-02-27T02:33:59.973Z,-0.03
2023-02-27T02:36:49.024Z,0.26
2023-02-27T02:39:45.146Z,0.29
2023-02-27T02:42:22.397Z,0.30
2023-02-27T02:45:06.336Z,0.39
2023-02-27T02:47:56.080Z,0.30
2023-02-27T02:50:33.245Z,0.36
2023-02-27T02:53:26.723Z,0.13
2023-02-27T02:56:06.355Z,0.40
2023-02-27T02:58:36.672Z,0.46
2023-02-27T03:01:10.236Z,0.42
2023-02-27T03:03:47.412Z,0.21
2023-02-27T03:06:21.321Z,0.27
2023-02-27T03:08:54.201Z,0.26
2023-02-27T03:11:26.441Z,0.36
2023-02-27T03:14:06.841Z,0.27
2023-02-27T03:16:56.030Z,0.43
2023-02-27T03:19:33.602Z,0.29
2023-02-27T03:22:08.956Z,0.21
2023-02-27T03:24:52.302Z,0.29
2023-02-27T03:27:22.600Z,0.31
2023-02-27T03:29:55.382Z,0.37
2023-02-27T03:32:24.934Z,0.20
2023-02-27T03:34:52.494Z,0.14
2023-02-27T03:37:26.532Z,0.09
2023-02-27T03:40:35.100Z,0.12
2023-02-27T03:43:16.629Z,-0.03
2023-02-27T03:46:14.623Z,-0.09
2023-02-27T03:48:44.629Z,0.00
2023-02-27T03:51:14.703Z,0.07
2023-02-27T03:54:00.237Z,0.21
2023-02-27T03:56:41.297Z,0.34
2023-02-27T03:59:09.069Z,0.16
2023-02-27T04:01:41.299Z,0.36
2023-02-27T04:04:13.150Z,0.37
2023-02-27T04:07:24.685Z,0.37
2023-02-27T04:10:10.315Z,0.62
2023-02-27T04:12:58.797Z,0.44
2023-02-27T04:16:11.971Z,0.39
2023-02-27T04:18:48.045Z,0.23
2023-02-27T04:21:35.367Z,0.36
2023-02-27T04:24:31.048Z,0.44
2023-02-27T04:27:18.605Z,0.48
2023-02-27T04:29:54.461Z,0.47
2023-02-27T04:32:38.001Z,0.56
2023-02-27T04:35:31.973Z,0.32
2023-02-27T04:38:28.402Z,0.45
2023-02-27T04:41:26.030Z,0.27
2023-02-27T04:43:55.157Z,0.50
2023-02-27T04:46:27.389Z,0.43
2023-02-27T04:49:09.261Z,0.37
2023-02-27T04:51:44.406Z,0.45
2023-02-27T04:54:16.228Z,0.45
2023-02-27T04:56:57.624Z,0.38
2023-02-27T04:59:32.789Z,0.47
2023-02-27T05:02:07.892Z,0.35
2023-02-27T05:04:38.181Z,0.39
2023-02-27T05:07:10.615Z,0.51
2023-02-27T05:09:41.028Z,0.55
2023-02-27T05:12:17.209Z,0.35
2023-02-27T05:14:52.388Z,0.00
2023-02-27T05:17:51.686Z,0.13
2023-02-27T05:20:19.251Z,0.38
2023-02-27T05:23:00.705Z,0.28
2023-02-27T05:25:30.557Z,0.18
2023-02-27T05:28:10.603Z,0.45
2023-02-27T05:30:43.679Z,0.35
2023-02-27T05:33:39.989Z,0.51
2023-02-27T05:36:16.045Z,0.60
2023-02-27T05:38:52.298Z,0.40
2023-02-27T05:41:34.815Z,0.34
2023-02-27T05:44:13.934Z,0.26
2023-02-27T05:46:52.846Z,0.32
2023-02-27T05:49:26.186Z,0.42
2023-02-27T05:51:57.340Z,0.19
2023-02-27T05:54:28.012Z,0.49
2023-02-27T05:56:59.156Z,0.34
2023-02-27T05:59:50.127Z,0.39
2023-02-27T06:02:17.417Z,0.32
2023-02-27T06:04:45.477Z,0.23
2023-02-27T06:07:14.844Z,0.09
2023-02-27T06:09:44.554Z,0.64
2023-02-27T06:12:11.589Z,0.39
2023-02-27T06:14:39.093Z,0.45
2023-02-27T06:17:06.226Z,0.25
2023-02-27T06:19:33.678Z,0.55
2023-02-27T06:22:00.697Z,0.44
2023-02-27T06:24:28.052Z,0.35
2023-02-27T06:26:55.290Z,0.52
2023-02-27T06:29:22.705Z,0.26
2023-02-27T06:31:49.759Z,0.30
2023-02-27T06:34:17.148Z,0.27
2023-02-27T06:36:44.366Z,0.31
2023-02-27T06:39:12.049Z,0.53
2023-02-27T06:41:39.532Z,0.75
2023-02-27T06:44:06.938Z,0.81
2023-02-27T06:46:33.981Z,0.45
2023-02-27T06:49:01.427Z,0.75
2023-02-27T06:51:28.501Z,0.87
2023-02-27T06:53:56.086Z,0.71
2023-02-27T06:56:23.166Z,0.73
2023-02-27T06:58:51.294Z,1.06
2023-02-27T07:01:18.447Z,0.99
2023-02-27T07:03:46.173Z,0.85
2023-02-27T07:06:13.248Z,1.15
2023-02-27T07:09:01.254Z,1.46
2023-02-27T07:11:27.724Z,1.34
2023-02-27T07:13:55.134Z,1.24
2023-02-27T07:16:22.594Z,1.38
2023-02-27T07:18:50.002Z,1.34
2023-02-27T07:21:17.063Z,1.37
2023-02-27T07:23:44.420Z,1.17
2023-02-27T07:26:11.497Z,1.38
2023-02-27T07:28:38.981Z,1.39
2023-02-27T07:31:06.156Z,1.32
2023-02-27T07:33:34.069Z,1.87
2023-02-27T07:36:01.356Z,1.50
2023-02-27T07:38:28.955Z,1.40
2023-02-27T07:40:56.107Z,1.32
2023-02-27T07:43:23.552Z,1.57
2023-02-27T07:45:51.825Z,1.52
2023-02-27T07:48:19.365Z,1.83
2023-02-27T07:50:46.768Z,1.70
2023-02-27T07:53:14.254Z,2.19
2023-02-27T07:55:41.461Z,2.30
2023-02-27T07:58:08.846Z,1.99
2023-02-27T08:00:35.931Z,1.84
2023-02-27T08:03:03.803Z,2.02
2023-02-27T08:05:31.061Z,1.80
2023-02-27T08:07:58.427Z,1.97
2023-02-27T08:10:25.836Z,2.26
2023-02-27T08:12:53.447Z,2.32
2023-02-27T08:15:20.684Z,2.11
2023-02-27T08:17:48.321Z,1.88
2023-02-27T08:20:16.737Z,1.68
2023-02-27T08:22:44.177Z,1.70
2023-02-27T08:25:11.479Z,2.24
2023-02-27T08:27:39.265Z,2.43
2023-02-27T08:30:08.263Z,2.43
2023-02-27T08:32:36.048Z,3.00
2023-02-27T08:35:03.272Z,2.54
2023-02-27T08:37:30.954Z,2.85
2023-02-27T08:39:58.105Z,2.04
2023-02-27T08:42:26.923Z,2.41
2023-02-27T08:44:54.124Z,2.90
2023-02-27T08:47:21.514Z,2.67
2023-02-27T08:49:48.551Z,3.30
2023-02-27T08:52:15.901Z,3.29
2023-02-27T08:54:43.006Z,3.28
2023-02-27T08:57:10.494Z,3.23
2023-02-27T08:59:37.590Z,3.79
2023-02-27T09:02:05.275Z,3.68
2023-02-27T09:04:32.348Z,3.55
2023-02-27T09:06:59.854Z,3.68
2023-02-27T09:09:27.520Z,3.52
2023-02-27T09:11:54.916Z,2.47
2023-02-27T09:14:24.110Z,3.66
2023-02-27T09:16:51.476Z,3.58
2023-02-27T09:19:18.618Z,3.70
2023-02-27T09:21:46.107Z,3.55
2023-02-27T09:24:19.705Z,3.61
2023-02-27T09:26:49.366Z,3.17
2023-02-27T09:29:17.620Z,2.97
2023-02-27T09:31:45.316Z,3.65
2023-02-27T09:34:12.490Z,2.95
2023-02-27T09:36:40.039Z,3.15
2023-02-27T09:39:09.716Z,3.24
2023-02-27T09:41:41.310Z,2.96
2023-02-27T09:44:47.111Z,2.92
2023-02-27T09:47:20.995Z,2.80
2023-02-27T09:49:52.552Z,3.38
2023-02-27T09:52:20.195Z,2.87
2023-02-27T09:55:04.889Z,2.80
2023-02-27T09:57:32.729Z,3.01
2023-02-27T10:00:08.684Z,3.11
2023-02-27T10:03:29.436Z,2.84
2023-02-27T10:06:13.842Z,2.98
2023-02-27T10:09:16.406Z,3.23
2023-02-27T10:12:10.621Z,3.04
2023-02-27T10:14:50.704Z,3.50
2023-02-27T10:17:54.885Z,3.40
2023-02-27T10:20:37.358Z,3.81
2023-02-27T10:23:13.083Z,3.38
2023-02-27T10:25:57.806Z,2.76
2023-02-27T10:28:38.862Z,3.77
2023-02-27T10:31:18.172Z,3.18
2023-02-27T10:33:48.978Z,4.20
2023-02-27T10:36:32.540Z,4.67
2023-02-27T10:39:12.146Z,4.42
2023-02-27T10:41:40.922Z,4.40
2023-02-27T10:44:11.544Z,4.50
2023-02-27T10:46:40.846Z,4.90
2023-02-27T10:49:20.787Z,5.02
2023-02-27T10:52:13.743Z,5.14
2023-02-27T10:54:42.793Z,4.91
2023-02-27T10:57:30.925Z,5.10
2023-02-27T11:00:01.693Z,6.01
2023-02-27T11:02:34.934Z,5.34
2023-02-27T11:05:03.185Z,5.51
2023-02-27T11:07:38.983Z,5.98
2023-02-27T11:10:15.213Z,5.47
2023-02-27T11:13:06.725Z,6.03
2023-02-27T11:15:38.745Z,6.96
2023-02-27T11:18:20.319Z,6.74
2023-02-27T11:20:50.777Z,5.46
2023-02-27T11:23:25.447Z,6.94
2023-02-27T11:26:10.356Z,6.42
2023-02-27T11:28:37.843Z,7.51
2023-02-27T11:31:15.041Z,6.37
2023-02-27T11:33:57.653Z,5.51
2023-02-27T11:36:45.911Z,5.17
2023-02-27T11:39:27.563Z,5.03
2023-02-27T11:41:58.028Z,7.29
2023-02-27T11:44:49.830Z,6.78
2023-02-27T11:47:25.348Z,5.02
2023-02-27T11:49:55.932Z,6.72
2023-02-27T11:52:53.179Z,6.92
2023-02-27T11:55:27.648Z,6.80
2023-02-27T11:58:04.728Z,6.45
2023-02-27T12:00:39.713Z,6.44
2023-02-27T12:03:18.796Z,7.05
2023-02-27T12:05:50.783Z,7.72
2023-02-27T12:08:29.858Z,5.15
2023-02-27T12:11:13.758Z,4.80
2023-02-27T12:13:49.190Z,4.52
2023-02-27T12:16:33.161Z,4.26
2023-02-27T12:19:12.993Z,5.07
2023-02-27T12:21:42.314Z,5.45
2023-02-27T12:24:14.555Z,7.73
2023-02-27T12:26:49.693Z,7.54
2023-02-27T12:29:33.050Z,8.16
2023-02-27T12:32:07.787Z,8.37
2023-02-27T12:34:38.014Z,7.34
2023-02-27T12:37:13.468Z,5.73
2023-02-27T12:39:43.286Z,4.27
2023-02-27T12:42:36.196Z,5.34
2023-02-27T12:45:09.345Z,5.31
2023-02-27T12:47:42.880Z,4.42
2023-02-27T12:50:15.581Z,3.89
2023-02-27T12:53:06.298Z,4.26
2023-02-27T12:55:41.389Z,3.34
2023-02-27T12:58:27.472Z,3.51
2023-02-27T13:01:01.618Z,3.21
2023-02-27T13:03:51.718Z,3.47
2023-02-27T13:06:32.565Z,4.34
2023-02-27T13:09:19.783Z,3.42
2023-02-27T13:12:02.183Z,4.79
2023-02-27T13:14:40.876Z,4.77
2023-02-27T13:17:38.172Z,5.15
2023-02-27T13:20:11.633Z,4.90
2023-02-27T13:22:48.591Z,4.50
2023-02-27T13:25:17.664Z,4.80
2023-02-27T13:28:00.331Z,3.68
2023-02-27T13:30:34.428Z,4.00
2023-02-27T13:33:26.645Z,3.96
2023-02-27T13:36:02.582Z,3.00
2023-02-27T13:38:47.981Z,3.18
2023-02-27T13:41:21.607Z,3.56
2023-02-27T13:43:59.912Z,3.33
2023-02-27T13:46:34.357Z,3.13
2023-02-27T13:49:04.621Z,3.60
2023-02-27T13:51:34.948Z,4.07
2023-02-27T13:54:14.435Z,3.85
2023-02-27T13:56:48.274Z,3.72
2023-02-27T13:59:35.107Z,3.24
2023-02-27T14:02:11.574Z,4.52
2023-02-27T14:04:51.542Z,4.07
2023-02-27T14:07:32.222Z,3.12
2023-02-27T14:10:11.166Z,3.29
2023-02-27T14:12:46.369Z,3.00
2023-02-27T14:15:22.702Z,3.02
2023-02-27T14:17:59.614Z,3.46
2023-02-27T14:20:40.160Z,3.14
2023-02-27T14:23:27.050Z,2.95
2023-02-27T14:26:02.221Z,2.88
2023-02-27T14:28:48.946Z,2.82
2023-02-27T14:31:32.239Z,2.64
2023-02-27T14:34:06.234Z,2.49
2023-02-27T14:36:40.952Z,2.88
2023-02-27T14:39:34.889Z,3.24
2023-02-27T14:42:21.144Z,3.22
2023-02-27T14:44:50.978Z,2.95
2023-02-27T14:47:39.516Z,3.30
2023-02-27T14:50:22.686Z,3.19
2023-02-27T14:52:50.245Z,3.01
2023-02-27T14:55:31.535Z,2.79
2023-02-27T14:58:08.332Z,2.42
2023-02-27T15:00:38.311Z,2.29
2023-02-27T15:03:32.843Z,2.36
2023-02-27T15:06:03.894Z,2.39
2023-02-27T15:08:37.342Z,2.14
2023-02-27T15:11:06.501Z,2.01
2023-02-27T15:13:38.038Z,2.54
2023-02-27T15:16:24.062Z,2.10
2023-02-27T15:19:04.693Z,1.61
2023-02-27T15:21:38.081Z,1.82
2023-02-27T15:24:22.572Z,1.48
2023-02-27T15:27:01.009Z,1.64
2023-02-27T15:29:53.303Z,1.43
2023-02-27T15:32:34.155Z,1.67
2023-02-27T15:35:17.393Z,1.70
2023-02-27T15:37:53.442Z,1.37
2023-02-27T15:40:29.971Z,1.20
2023-02-27T15:43:00.340Z,1.30
2023-02-27T15:45:32.125Z,1.48
2023-02-27T15:48:00.597Z,1.31
2023-02-27T15:50:37.249Z,1.41
2023-02-27T15:53:08.099Z,1.64
2023-02-27T15:55:38.744Z,1.27
2023-02-27T15:58:36.901Z,1.26
2023-02-27T16:01:18.898Z,1.23
2023-02-27T16:03:49.862Z,1.16
2023-02-27T16:06:30.612Z,1.09
2023-02-27T16:09:20.738Z,1.24
2023-02-27T16:11:48.142Z,1.28
2023-02-27T16:14:43.161Z,1.06
2023-02-27T16:17:31.564Z,1.18
2023-02-27T16:20:02.437Z,1.23
2023-02-27T16:22:30.614Z,1.10
2023-02-27T16:25:18.561Z,1.20
2023-02-27T16:27:50.278Z,1.06
2023-02-27T16:30:17.882Z,0.70
2023-02-27T16:32:45.338Z,0.56
2023-02-27T16:35:21.894Z,0.47
2023-02-27T16:37:50.535Z,0.51
2023-02-27T16:40:23.908Z,0.02
2023-02-27T16:42:52.254Z,0.08
2023-02-27T16:45:27.967Z,-0.08
2023-02-27T16:47:58.792Z,-0.71
2023-02-27T16:50:39.435Z,-0.26
2023-02-27T16:53:07.388Z,0.17
2023-02-27T16:55:39.709Z,0.03
2023-02-27T16:58:07.241Z,0.00
2023-02-27T17:00:35.025Z,0.05
2023-02-27T17:03:02.537Z,0.17
2023-02-27T17:05:30.409Z,0.09
2023-02-27T17:07:57.696Z,-0.03
2023-02-27T17:10:26.310Z,-0.39
2023-02-27T17:12:53.557Z,-0.24
2023-02-27T17:15:21.102Z,-0.32
2023-02-27T17:17:48.793Z,-0.17
2023-02-27T17:20:16.566Z,-0.13
2023-02-27T17:22:45.256Z,-0.09
2023-02-27T17:25:13.812Z,-0.38
2023-02-27T17:27:43.895Z,-0.32
2023-02-27T17:30:13.300Z,-0.53
2023-02-27T17:32:40.536Z,-0.63
2023-02-27T17:35:08.986Z,-0.68
2023-02-27T17:37:36.569Z,-1.49
2023-02-27T17:40:05.998Z,-1.42
2023-02-27T17:42:36.250Z,-1.37
2023-02-27T17:45:06.484Z,-1.41
2023-02-27T17:47:34.791Z,-1.10
2023-02-27T17:50:04.284Z,-0.99
2023-02-27T17:52:41.761Z,-0.84
2023-02-27T17:55:10.204Z,-1.10
2023-02-27T17:57:39.567Z,-1.15
2023-02-27T18:00:09.106Z,-1.14
2023-02-27T18:02:37.254Z,-1.02
2023-02-27T18:05:06.190Z,-1.18
2023-02-27T18:07:34.727Z,-1.35
2023-02-27T18:10:05.492Z,-1.37
2023-02-27T18:12:33.120Z,-1.73
2023-02-27T18:15:01.693Z,-2.05
2023-02-27T18:17:29.204Z,-2.13
2023-02-27T18:19:58.033Z,-1.79
2023-02-27T18:22:25.829Z,-1.84
2023-02-27T18:24:55.063Z,-1.37
2023-02-27T18:27:22.891Z,-1.26
2023-02-27T18:29:50.637Z,-1.44
2023-02-27T18:32:19.138Z,-1.34
2023-02-27T18:34:47.319Z,-1.21
2023-02-27T18:37:14.900Z,-1.35
2023-02-27T18:39:42.780Z,-1.50
2023-02-27T18:42:10.248Z,-1.63
2023-02-27T18:44:41.074Z,-1.90
2023-02-27T18:47:09.780Z,-1.47
2023-02-27T18:49:38.181Z,-1.35
2023-02-27T18:52:05.974Z,-2.05
2023-02-27T18:54:34.901Z,-1.99
2023-02-27T18:57:02.567Z,-1.96
2023-02-27T18:59:30.601Z,-2.13
2023-02-27T19:01:58.300Z,-1.88
2023-02-27T19:04:26.429Z,-1.80
2023-02-27T19:06:54.049Z,-1.87
2023-02-27T19:09:22.351Z,-1.76
2023-02-27T19:11:50.113Z,-1.75
2023-02-27T19:14:18.428Z,-1.76
2023-02-27T19:16:46.492Z,-1.91
2023-02-27T19:19:15.204Z,-1.91
2023-02-27T19:21:42.929Z,-1.99
2023-02-27T19:24:13.136Z,-2.30
2023-02-27T19:26:41.627Z,-2.35
2023-02-27T19:29:09.482Z,-2.39
2023-02-27T19:31:37.145Z,-2.35
2023-02-27T19:34:05.369Z,-2.37
2023-02-27T19:36:37.812Z,-2.19
2023-02-27T19:39:06.648Z,-2.40
2023-02-27T19:41:34.495Z,-2.11
2023-02-27T19:44:02.655Z,-2.41
2023-02-27T19:46:33.892Z,-2.23
2023-02-27T19:49:05.552Z,-2.20
2023-02-27T19:51:34.014Z,-2.56
2023-02-27T19:54:01.908Z,-2.66
2023-02-27T19:56:30.779Z,-2.51
2023-02-27T19:59:00.975Z,-2.75
2023-02-27T20:01:32.639Z,-2.73
2023-02-27T20:04:02.090Z,-2.63
2023-02-27T20:06:31.585Z,-2.72
2023-02-27T20:09:00.119Z,-2.72
2023-02-27T20:11:31.964Z,-2.57
2023-02-27T20:14:00.742Z,-2.89
2023-02-27T20:16:30.872Z,-2.75
2023-02-27T20:19:00.185Z,-3.03
2023-02-27T20:21:28.943Z,-2.68
2023-02-27T20:23:58.546Z,-2.65
2023-02-27T20:26:35.344Z,-3.00
2023-02-27T20:29:18.772Z,-2.98
2023-02-27T20:31:48.630Z,-3.59
2023-02-27T20:34:21.984Z,-3.33
2023-02-27T20:36:53.782Z,-2.90
2023-02-27T20:39:22.030Z,-2.81
2023-02-27T20:41:49.692Z,-2.97
2023-02-27T20:44:17.618Z,-3.39
2023-02-27T20:46:45.170Z,-3.58
2023-02-27T20:49:17.565Z,-3.50
2023-02-27T20:51:45.818Z,-3.73
2023-02-27T20:54:16.647Z,-3.53
2023-02-27T20:56:44.348Z,-3.30
2023-02-27T20:59:14.306Z,-3.42
2023-02-27T21:01:42.375Z,-3.60
2023-02-27T21:04:10.373Z,-3.64
2023-02-27T21:06:37.837Z,-3.60
2023-02-27T21:09:06.662Z,-3.62
2023-02-27T21:11:34.364Z,-3.59
2023-02-27T21:14:09.233Z,-3.70
2023-02-27T21:16:38.236Z,-3.51
2023-02-27T21:19:07.407Z,-3.37
2023-02-27T21:21:36.006Z,-3.64
2023-02-27T21:24:04.090Z,-3.70
2023-02-27T21:26:35.466Z,-3.59
2023-02-27T21:29:06.965Z,-3.55
2023-02-27T21:31:35.657Z,-3.31
2023-02-27T21:34:05.980Z,-3.35
2023-02-27T21:36:36.628Z,-3.52
2023-02-27T21:39:07.193Z,-3.78
2023-02-27T21:41:35.434Z,-3.94
2023-02-27T21:44:05.832Z,-3.66
2023-02-27T21:46:34.528Z,-3.69
2023-02-27T21:49:03.969Z,-3.90
2023-02-27T21:51:40.473Z,-4.04
2023-02-27T21:54:11.918Z,-4.29
2023-02-27T21:56:40.355Z,-4.33
2023-02-27T21:59:08.134Z,-4.34
2023-02-27T22:01:37.820Z,-4.09
2023-02-27T22:04:06.962Z,-4.34
2023-02-27T22:06:35.640Z,-4.04
2023-02-27T22:09:05.920Z,-4.38
2023-02-27T22:11:34.412Z,-4.46
2023-02-27T22:14:05.613Z,-4.17
2023-02-27T22:16:33.228Z,-4.23
2023-02-27T22:19:06.209Z,-4.27
2023-02-27T22:21:34.036Z,-4.52
2023-02-27T22:24:01.955Z,-4.22
2023-02-27T22:26:29.344Z,-4.62
2023-02-27T22:28:57.646Z,-4.43
2023-02-27T22:31:37.554Z,-4.76
2023-02-27T22:34:12.384Z,-4.60
2023-02-27T22:36:41.817Z,-4.69
2023-02-27T22:39:10.501Z,-4.47
2023-02-27T22:41:40.116Z,-4.12
2023-02-27T22:44:09.556Z,-4.42
2023-02-27T22:46:39.895Z,-4.57
2023-02-27T22:49:15.699Z,-4.33
2023-02-27T22:51:42.873Z,-4.66
2023-02-27T22:54:12.712Z,-4.83
2023-02-27T22:56:40.046Z,-4.39
2023-02-27T22:59:08.036Z,-4.80
2023-02-27T23:01:37.365Z,-4.69
2023-02-27T23:04:06.690Z,-4.48
2023-02-27T23:06:37.213Z,-4.52
2023-02-27T23:09:07.247Z,-4.42
2023-02-27T23:11:34.338Z,-4.69
2023-02-27T23:14:01.916Z,-4.88
2023-02-27T23:16:29.088Z,-5.02
2023-02-27T23:18:59.369Z,-4.81
2023-02-27T23:21:32.187Z,-5.18
2023-02-27T23:24:00.311Z,-5.00
2023-02-27T23:26:28.483Z,-4.99
2023-02-27T23:28:56.957Z,-4.93
2023-02-27T23:31:24.537Z,-5.03
2023-02-27T23:33:52.513Z,-4.86
2023-02-27T23:36:19.760Z,-4.68
2023-02-27T23:38:47.423Z,-4.64
2023-02-27T23:41:17.434Z,-4.79
2023-02-27T23:43:45.010Z,-5.01
2023-02-27T23:46:15.289Z,-4.75
2023-02-27T23:48:43.295Z,-4.60
2023-02-27T23:51:11.535Z,-4.59
2023-02-27T23:53:40.928Z,-4.99
2023-02-27T23:56:22.444Z,-4.81
2023-02-27T23:59:04.202Z,-4.76
